Time;durP1;ratioP1;P1;durP2;ratioP2;P2;SDS_P1;SDS_P2;PMS_P1;PMS_P2;Temp;Humidity;BMP_temperature;BMP_pressure;BME280_temperature;BME280_humidity;BME280_pressure;Samples;Min_cycle;Max_cycle;Signal;HPM_P1;HPM_P2
2022/07/12 00:01:06;;;;;;;2.57;2.37;;;;;;;;;;5090631;28;20194;-83
2022/07/12 00:04:10;;;;;;;2.93;2.00;;;;;;;;;;5087120;28;20186;-83
2022/07/12 00:07:14;;;;;;;1.93;1.80;;;;;;;;;;5081535;28;20549;-83
2022/07/12 00:10:18;;;;;;;2.33;2.03;;;;;;;;;;5104579;28;20194;-83
2022/07/12 00:13:22;;;;;;;4.20;2.00;;;;;;;;;;5081162;28;20217;-83
2022/07/12 00:16:26;;;;;;;2.47;2.27;;;;;;;;;;5093609;28;20202;-83
2022/07/12 00:19:32;;;;;;;2.47;2.10;;;;;;;;;;5080858;28;20178;-83
2022/07/12 00:22:36;;;;;;;4.13;2.53;;;;;;;;;;5092651;28;20213;-83
2022/07/12 00:25:39;;;;;;;3.30;2.57;;;;;;;;;;5081278;28;20198;-84
2022/07/12 00:28:44;;;;;;;3.13;2.87;;;;;;;;;;5080779;28;20541;-83
2022/07/12 00:31:48;;;;;;;2.80;2.60;;;;;;;;;;5072157;28;20218;-83
2022/07/12 00:34:53;;;;;;;3.03;2.73;;;;;;;;;;5059866;28;20222;-83
2022/07/12 00:37:57;;;;;;;2.80;2.50;;;;;;;;;;5072734;28;20645;-83
2022/07/12 00:41:01;;;;;;;3.00;2.70;;;;;;;;;;5078058;28;20186;-84
2022/07/12 00:44:05;;;;;;;5.37;2.90;;;;;;;;;;5081066;28;20644;-83
2022/07/12 00:47:24;;;;;;;2.70;2.50;;;;;;;;;;5116760;28;20178;-83
2022/07/12 00:50:28;;;;;;;2.90;2.60;;;;;;;;;;5103091;28;20194;-83
2022/07/12 00:53:33;;;;;;;3.03;2.77;;;;;;;;;;5071917;28;20214;-83
2022/07/12 00:56:37;;;;;;;3.20;2.57;;;;;;;;;;5060404;28;20218;-83
2022/07/12 00:59:40;;;;;;;2.80;2.53;;;;;;;;;;5065235;28;20645;-83
2022/07/12 01:02:46;;;;;;;2.50;2.30;;;;;;;;;;5079853;28;20584;-84
2022/07/12 01:05:50;;;;;;;2.43;2.20;;;;;;;;;;5079594;28;20190;-83
2022/07/12 01:08:56;;;;;;;3.67;2.70;;;;;;;;;;5080996;28;20174;-83
2022/07/12 01:12:01;;;;;;;2.80;2.30;;;;;;;;;;5060165;28;20669;-83
2022/07/12 01:15:06;;;;;;;2.50;2.30;;;;;;;;;;5081212;28;20673;-83
2022/07/12 01:18:10;;;;;;;2.30;2.10;;;;;;;;;;5059778;28;20198;-83
2022/07/12 01:21:19;;;;;;;3.67;2.17;;;;;;;;;;5083554;28;20198;-83
2022/07/12 01:24:23;;;;;;;2.33;2.13;;;;;;;;;;5103570;28;20513;-83
2022/07/12 01:27:28;;;;;;;2.60;2.30;;;;;;;;;;5083451;28;20175;-83
2022/07/12 01:30:32;;;;;;;2.30;2.10;;;;;;;;;;5071678;28;20179;-84
2022/07/12 01:33:36;;;;;;;3.17;2.50;;;;;;;;;;5073260;28;20218;-83
2022/07/12 01:36:41;;;;;;;2.03;1.93;;;;;;;;;;5071621;28;20206;-84
2022/07/12 01:39:47;;;;;;;2.43;2.23;;;;;;;;;;5085831;28;20175;-83
2022/07/12 01:42:51;;;;;;;2.00;1.90;;;;;;;;;;5112972;23;20225;-82
2022/07/12 01:45:55;;;;;;;2.23;2.00;;;;;;;;;;5092485;28;20178;-83
2022/07/12 01:49:00;;;;;;;2.20;2.00;;;;;;;;;;5081258;28;20624;-82
2022/07/12 01:52:04;;;;;;;2.33;2.13;;;;;;;;;;5092217;28;20252;-83
2022/07/12 01:55:11;;;;;;;2.23;2.03;;;;;;;;;;5083981;28;20210;-82
2022/07/12 01:58:16;;;;;;;3.07;2.20;;;;;;;;;;5084072;28;20221;-83
2022/07/12 02:01:20;;;;;;;3.10;2.80;;;;;;;;;;5091056;28;20194;-84
2022/07/12 02:04:25;;;;;;;2.33;2.13;;;;;;;;;;5092705;28;20207;-82
2022/07/12 02:07:29;;;;;;;2.17;1.80;;;;;;;;;;5080782;28;20174;-82
2022/07/12 02:10:33;;;;;;;2.50;1.90;;;;;;;;;;5081143;28;20514;-82
2022/07/12 02:13:37;;;;;;;2.60;2.40;;;;;;;;;;5060348;28;20226;-83
2022/07/12 02:16:42;;;;;;;2.70;2.50;;;;;;;;;;5060473;28;20202;-83
2022/07/12 02:19:46;;;;;;;2.67;1.93;;;;;;;;;;5069336;28;20182;-82
2022/07/12 02:22:50;;;;;;;2.27;2.07;;;;;;;;;;5103178;28;20209;-82
2022/07/12 02:25:54;;;;;;;3.37;1.80;;;;;;;;;;5081029;28;20174;-83
2022/07/12 02:28:58;;;;;;;3.13;2.00;;;;;;;;;;5091986;28;20190;-83
2022/07/12 02:32:03;;;;;;;2.17;1.97;;;;;;;;;;5116648;28;20222;-81
2022/07/12 02:35:07;;;;;;;2.27;2.07;;;;;;;;;;5092363;28;20182;-83
2022/07/12 02:38:11;;;;;;;3.10;2.33;;;;;;;;;;5091638;28;20193;-82
2022/07/12 02:41:16;;;;;;;3.17;2.20;;;;;;;;;;5072092;28;20183;-83
2022/07/12 02:44:20;;;;;;;2.37;2.17;;;;;;;;;;5072195;28;20613;-82
2022/07/12 02:47:24;;;;;;;2.47;2.27;;;;;;;;;;5088505;28;20182;-83
2022/07/12 02:50:28;;;;;;;2.80;2.50;;;;;;;;;;5081119;28;20186;-83
2022/07/12 02:53:33;;;;;;;3.00;2.70;;;;;;;;;;5071262;28;20222;-83
2022/07/12 02:56:38;;;;;;;2.60;2.40;;;;;;;;;;5060756;28;20198;-83
2022/07/12 02:59:41;;;;;;;3.37;2.47;;;;;;;;;;5076108;28;20175;-83
2022/07/12 03:02:46;;;;;;;2.30;2.10;;;;;;;;;;5097964;28;20209;-82
2022/07/12 03:05:50;;;;;;;5.10;2.30;;;;;;;;;;5107776;28;20179;-82
2022/07/12 03:08:54;;;;;;;2.50;2.30;;;;;;;;;;5068539;28;20190;-82
2022/07/12 03:11:58;;;;;;;2.53;2.20;;;;;;;;;;5076100;28;20205;-83
2022/07/12 03:15:04;;;;;;;5.30;2.40;;;;;;;;;;5087092;28;20536;-83
2022/07/12 03:18:09;;;;;;;2.40;2.20;;;;;;;;;;5109530;28;20194;-82
2022/07/12 03:21:13;;;;;;;2.40;2.07;;;;;;;;;;5107567;28;20633;-83
2022/07/12 03:24:17;;;;;;;2.20;2.00;;;;;;;;;;5095844;28;20186;-83
2022/07/12 03:27:21;;;;;;;3.90;2.00;;;;;;;;;;5084019;28;20174;-83
2022/07/12 03:30:26;;;;;;;2.43;2.23;;;;;;;;;;5075654;28;20170;-84
2022/07/12 03:33:31;;;;;;;2.47;2.00;;;;;;;;;;5099380;28;20557;-82
2022/07/12 03:36:35;;;;;;;2.40;2.20;;;;;;;;;;5074979;28;20199;-83
2022/07/12 03:39:39;;;;;;;3.10;1.93;;;;;;;;;;5086258;28;20183;-82
2022/07/12 03:42:44;;;;;;;2.70;2.17;;;;;;;;;;5074661;28;20222;-82
2022/07/12 03:45:48;;;;;;;3.83;2.47;;;;;;;;;;5106162;28;20629;-82
2022/07/12 03:48:52;;;;;;;2.67;2.43;;;;;;;;;;5094240;28;20189;-82
2022/07/12 03:51:56;;;;;;;2.37;2.17;;;;;;;;;;5105531;28;20190;-83
2022/07/12 03:55:04;;;;;;;2.67;2.00;;;;;;;;;;5074689;28;20183;-82
2022/07/12 03:58:07;;;;;;;2.20;2.00;;;;;;;;;;5082421;28;20529;-83
2022/07/12 04:01:12;;;;;;;3.93;2.03;;;;;;;;;;5094493;28;20509;-82
2022/07/12 04:04:16;;;;;;;3.70;2.50;;;;;;;;;;5094165;28;20672;-82
2022/07/12 04:07:21;;;;;;;3.07;2.10;;;;;;;;;;5093393;28;20178;-82
2022/07/12 04:10:25;;;;;;;1.90;1.80;;;;;;;;;;5082065;28;20518;-82
2022/07/12 04:13:29;;;;;;;4.23;2.60;;;;;;;;;;5082670;28;20218;-83
2022/07/12 04:16:33;;;;;;;2.60;2.17;;;;;;;;;;5094051;28;20205;-82
2022/07/12 04:19:38;;;;;;;2.70;2.30;;;;;;;;;;5085504;28;20174;-83
2022/07/12 04:22:42;;;;;;;2.87;2.10;;;;;;;;;;5067382;28;20209;-83
2022/07/12 04:25:46;;;;;;;3.60;2.00;;;;;;;;;;5083326;28;20174;-83
2022/07/12 04:28:50;;;;;;;2.77;2.10;;;;;;;;;;5079568;28;20191;-82
2022/07/12 04:31:54;;;;;;;2.40;2.20;;;;;;;;;;5074015;28;20187;-83
2022/07/12 04:34:59;;;;;;;2.07;1.90;;;;;;;;;;5062433;28;20179;-83
2022/07/12 04:38:03;;;;;;;2.10;1.90;;;;;;;;;;5093811;28;20178;-82
2022/07/12 04:41:07;;;;;;;4.73;2.17;;;;;;;;;;5105980;28;20182;-82
2022/07/12 04:44:12;;;;;;;3.07;1.93;;;;;;;;;;5094159;28;20194;-83
2022/07/12 04:47:16;;;;;;;2.50;2.07;;;;;;;;;;5094465;28;20174;-83
2022/07/12 04:50:20;;;;;;;2.80;2.00;;;;;;;;;;5082719;28;20178;-83
2022/07/12 04:53:24;;;;;;;3.40;2.10;;;;;;;;;;5105150;28;20218;-83
2022/07/12 04:56:28;;;;;;;2.30;2.10;;;;;;;;;;5083903;28;20214;-82
2022/07/12 04:59:32;;;;;;;2.77;2.47;;;;;;;;;;5104004;28;20186;-84
2022/07/12 05:02:36;;;;;;;2.50;2.30;;;;;;;;;;5093442;28;20209;-83
2022/07/12 05:05:41;;;;;;;2.43;2.23;;;;;;;;;;5104819;28;20178;-83
2022/07/12 05:08:45;;;;;;;2.60;2.40;;;;;;;;;;5078096;28;20194;-83
2022/07/12 05:11:49;;;;;;;2.30;2.10;;;;;;;;;;5090004;28;20186;-83
2022/07/12 05:14:53;;;;;;;2.53;2.33;;;;;;;;;;5104701;28;20174;-83
2022/07/12 05:17:57;;;;;;;2.90;2.57;;;;;;;;;;5082267;28;20202;-83
2022/07/12 05:21:02;;;;;;;4.77;2.57;;;;;;;;;;5104267;28;20533;-83
2022/07/12 05:24:06;;;;;;;2.97;2.67;;;;;;;;;;5080915;28;20206;-82
2022/07/12 05:27:10;;;;;;;2.60;2.40;;;;;;;;;;5092669;28;20174;-82
2022/07/12 05:30:14;;;;;;;3.00;2.30;;;;;;;;;;5092547;28;20198;-83
2022/07/12 05:33:19;;;;;;;3.40;2.70;;;;;;;;;;5072731;28;20219;-84
2022/07/12 05:36:22;;;;;;;3.30;2.23;;;;;;;;;;5091068;28;20205;-84
2022/07/12 05:39:27;;;;;;;2.03;1.83;;;;;;;;;;5103590;28;20202;-84
2022/07/12 05:42:31;;;;;;;3.67;2.10;;;;;;;;;;5092145;28;20221;-84
2022/07/12 05:45:35;;;;;;;3.07;2.23;;;;;;;;;;5103068;28;20524;-84
2022/07/12 05:48:39;;;;;;;2.50;1.93;;;;;;;;;;5103679;28;20194;-85
2022/07/12 05:55:06;;;;;;;4.33;2.10;;;;;;;;;;5099407;28;20216;-85
2022/07/12 05:58:10;;;;;;;2.23;2.03;;;;;;;;;;5079025;28;20210;-81
2022/07/12 06:01:14;;;;;;;2.60;2.20;;;;;;;;;;5090182;28;20197;-82
2022/07/12 06:04:18;;;;;;;2.47;2.23;;;;;;;;;;5087593;28;20190;-81
2022/07/12 06:07:23;;;;;;;2.50;1.97;;;;;;;;;;5089318;28;20178;-81
2022/07/12 06:10:27;;;;;;;1.80;1.60;;;;;;;;;;5090117;28;20533;-82
2022/07/12 06:13:31;;;;;;;2.50;1.50;;;;;;;;;;5089968;28;20213;-81
2022/07/12 06:16:35;;;;;;;2.87;1.53;;;;;;;;;;5081367;28;20210;-81
2022/07/12 06:19:39;;;;;;;1.70;1.50;;;;;;;;;;5070146;28;20633;-81
2022/07/12 06:22:43;;;;;;;3.67;1.30;;;;;;;;;;5075708;28;20213;-81
2022/07/12 06:25:48;;;;;;;1.27;1.07;;;;;;;;;;5101780;28;20190;-81
2022/07/12 06:28:52;;;;;;;2.40;1.43;;;;;;;;;;5090151;28;20174;-81
2022/07/12 06:31:56;;;;;;;6.40;1.40;;;;;;;;;;5089232;28;20185;-81
2022/07/12 06:35:00;;;;;;;1.70;1.40;;;;;;;;;;5078867;28;20173;-81
2022/07/12 06:38:04;;;;;;;5.73;1.60;;;;;;;;;;5092162;28;20217;-81
2022/07/12 06:41:08;;;;;;;2.47;1.63;;;;;;;;;;5102395;28;20182;-81
2022/07/12 06:44:12;;;;;;;3.13;1.60;;;;;;;;;;5089995;28;20190;-81
2022/07/12 06:47:16;;;;;;;2.00;1.73;;;;;;;;;;5101013;28;20190;-81
2022/07/12 06:50:21;;;;;;;2.47;1.40;;;;;;;;;;5101631;28;20190;-81
2022/07/12 06:53:26;;;;;;;1.57;1.30;;;;;;;;;;5101217;28;20218;-81
2022/07/12 06:56:30;;;;;;;1.80;1.23;;;;;;;;;;5079069;28;20202;-81
2022/07/12 06:59:34;;;;;;;1.73;1.50;;;;;;;;;;5101622;28;20544;-81
2022/07/12 07:02:41;;;;;;;2.13;1.40;;;;;;;;;;5080885;28;20214;-81
2022/07/12 07:05:45;;;;;;;2.60;1.40;;;;;;;;;;5082409;28;20538;-80
2022/07/12 07:08:49;;;;;;;2.77;1.40;;;;;;;;;;5089895;28;20166;-80
2022/07/12 07:11:53;;;;;;;1.30;1.20;;;;;;;;;;5113544;28;20190;-80
2022/07/12 07:14:58;;;;;;;2.20;1.17;;;;;;;;;;5089698;28;20175;-81
2022/07/12 07:18:02;;;;;;;1.53;1.43;;;;;;;;;;5088834;28;20541;-80
2022/07/12 07:21:06;;;;;;;1.60;1.10;;;;;;;;;;5089405;28;20525;-81
2022/07/12 07:24:10;;;;;;;1.83;1.10;;;;;;;;;;5101254;28;20194;-81
2022/07/12 07:27:14;;;;;;;1.40;1.27;;;;;;;;;;5069741;28;20179;-81
2022/07/12 07:33:41;;;;;;;2.80;1.23;;;;;;;;;;5072307;28;20213;-81
2022/07/12 07:36:45;;;;;;;1.00;0.90;;;;;;;;;;5081324;28;20207;-81
2022/07/12 07:39:50;;;;;;;0.83;0.83;;;;;;;;;;5069229;28;20518;-81
2022/07/12 07:42:54;;;;;;;1.67;1.03;;;;;;;;;;5081074;22;20297;-86
2022/07/12 07:45:58;;;;;;;0.90;0.77;;;;;;;;;;5074352;28;20198;-85
2022/07/12 07:49:03;;;;;;;2.93;0.63;;;;;;;;;;5041415;28;20625;-85
2022/07/12 07:52:07;;;;;;;0.80;0.80;;;;;;;;;;5064277;28;20180;-85
2022/07/12 07:55:11;;;;;;;2.37;0.83;;;;;;;;;;5032223;28;20184;-86
2022/07/12 07:58:16;;;;;;;1.13;0.70;;;;;;;;;;5020814;28;20217;-86
2022/07/12 08:01:20;;;;;;;2.20;0.80;;;;;;;;;;5043548;28;20186;-86
2022/07/12 08:04:24;;;;;;;3.47;0.80;;;;;;;;;;5019418;28;20567;-82
2022/07/12 08:07:28;;;;;;;0.67;0.67;;;;;;;;;;5032627;28;20517;-83
2022/07/12 08:10:33;;;;;;;0.93;0.60;;;;;;;;;;5021678;28;20643;-86
2022/07/12 08:13:37;;;;;;;1.30;0.80;;;;;;;;;;5031853;28;20225;-86
2022/07/12 08:16:41;;;;;;;5.30;0.73;;;;;;;;;;5034647;28;20204;-86
2022/07/12 08:19:45;;;;;;;1.67;0.77;;;;;;;;;;5031295;28;20224;-85
2022/07/12 08:22:49;;;;;;;2.88;0.73;;;;;;;;;;5020483;28;20217;-86
2022/07/12 08:25:53;;;;;;;0.85;0.65;;;;;;;;;;5021175;28;20179;-86
2022/07/12 08:28:58;;;;;;;1.50;0.88;;;;;;;;;;5032058;28;20198;-86
2022/07/12 08:32:02;;;;;;;2.15;0.82;;;;;;;;;;5043520;28;20202;-86
2022/07/12 08:35:06;;;;;;;1.58;0.70;;;;;;;;;;5031451;28;20197;-86
2022/07/12 08:38:11;;;;;;;2.63;0.65;;;;;;;;;;5019982;28;20207;-86
2022/07/12 08:41:15;;;;;;;1.33;0.75;;;;;;;;;;5043347;28;20185;-86
2022/07/12 08:44:19;;;;;;;2.97;0.82;;;;;;;;;;5042686;28;20223;-86
2022/07/12 08:47:24;;;;;;;1.20;0.80;;;;;;;;;;5020528;28;20643;-86
2022/07/12 08:50:28;;;;;;;1.67;0.80;;;;;;;;;;5032003;28;20178;-86
2022/07/12 08:53:32;;;;;;;1.10;0.60;;;;;;;;;;5031669;28;20210;-86
2022/07/12 08:56:42;;;;;;;3.72;0.90;;;;;;;;;;5019808;28;20180;-86
2022/07/12 08:59:58;;;;;;;0.90;0.60;;;;;;;;;;5031405;28;20194;-86
2022/07/12 09:03:04;;;;;;;1.08;0.75;;;;;;;;;;5020036;28;20224;-86
2022/07/12 09:06:10;;;;;;;1.02;0.77;;;;;;;;;;5042384;28;20203;-86
2022/07/12 09:09:35;;;;;;;1.75;0.75;;;;;;;;;;5019862;28;20194;-86
2022/07/12 09:12:40;;;;;;;1.20;0.63;;;;;;;;;;5019851;28;20220;-86
2022/07/12 09:15:47;;;;;;;1.75;0.80;;;;;;;;;;5031247;28;20186;-86
2022/07/12 09:19:16;;;;;;;2.38;1.00;;;;;;;;;;5019696;28;20203;-86
2022/07/12 09:22:20;;;;;;;2.00;0.50;;;;;;;;;;5030830;28;20179;-86
2022/07/12 09:25:24;;;;;;;1.85;0.50;;;;;;;;;;5019386;28;20199;-86
2022/07/12 09:28:28;;;;;;;0.88;0.68;;;;;;;;;;5031283;28;20176;-86
2022/07/12 09:31:40;;;;;;;0.70;0.45;;;;;;;;;;5030803;28;20181;-86
2022/07/12 09:38:18;;;;;;;0.98;0.60;;;;;;;;;;5010976;28;20679;-87
2022/07/12 09:41:23;;;;;;;1.02;0.60;;;;;;;;;;5051019;28;20191;-87
2022/07/12 09:44:30;;;;;;;0.90;0.80;;;;;;;;;;5030072;28;20565;-87
2022/07/12 09:47:35;;;;;;;0.82;0.60;;;;;;;;;;5022294;28;20180;-87
2022/07/12 09:50:40;;;;;;;2.28;0.80;;;;;;;;;;5026624;28;20184;-87
2022/07/12 09:53:45;;;;;;;3.70;0.63;;;;;;;;;;5018774;28;20220;-86
2022/07/12 09:56:53;;;;;;;1.08;0.73;;;;;;;;;;5041609;28;20642;-87
2022/07/12 09:59:58;;;;;;;1.50;0.75;;;;;;;;;;5011042;28;20180;-86
2022/07/12 10:03:03;;;;;;;0.77;0.68;;;;;;;;;;5032565;28;20214;-86
2022/07/12 10:06:07;;;;;;;1.52;0.75;;;;;;;;;;5010521;28;20187;-86
2022/07/12 10:09:13;;;;;;;1.10;0.75;;;;;;;;;;5009517;28;20175;-86
2022/07/12 10:12:20;;;;;;;1.75;0.65;;;;;;;;;;5013042;28;20186;-85
2022/07/12 10:15:26;;;;;;;3.45;1.00;;;;;;;;;;5053671;28;20186;-84
2022/07/12 10:18:31;;;;;;;2.50;1.48;;;;;;;;;;5031044;28;20214;-84
2022/07/12 10:21:39;;;;;;;1.77;0.70;;;;;;;;;;5011401;28;20173;-87
2022/07/12 10:24:44;;;;;;;0.82;0.60;;;;;;;;;;5027295;28;20199;-86
2022/07/12 10:27:49;;;;;;;3.95;0.65;;;;;;;;;;5052256;28;20187;-87
2022/07/12 10:30:53;;;;;;;0.82;0.70;;;;;;;;;;5018547;28;20188;-87
2022/07/12 10:34:19;;;;;;;1.38;0.63;;;;;;;;;;5029229;28;20219;-87
2022/07/12 10:37:24;;;;;;;1.15;0.80;;;;;;;;;;5029153;28;20188;-86
2022/07/12 10:40:33;;;;;;;0.77;0.65;;;;;;;;;;5018372;28;20203;-86
2022/07/12 10:47:01;;;;;;;0.93;0.55;;;;;;;;;;5035965;28;20189;-86
2022/07/12 10:50:05;;;;;;;0.63;0.50;;;;;;;;;;5018505;28;20193;-86
2022/07/12 10:53:19;;;;;;;1.58;0.85;;;;;;;;;;5020783;28;20568;-86
2022/07/12 10:56:25;;;;;;;1.88;0.80;;;;;;;;;;5021217;28;20186;-86
2022/07/12 10:59:32;;;;;;;3.20;0.70;;;;;;;;;;5021060;28;20666;-86
2022/07/12 11:02:37;;;;;;;1.42;0.82;;;;;;;;;;5011198;28;20219;-86
2022/07/12 11:05:42;;;;;;;2.45;0.80;;;;;;;;;;5029615;28;20183;-86
2022/07/12 11:08:47;;;;;;;0.60;0.60;;;;;;;;;;5029713;28;20188;-86
2022/07/12 11:11:52;;;;;;;4.18;0.73;;;;;;;;;;5040900;28;20181;-86
2022/07/12 11:14:58;;;;;;;0.60;0.60;;;;;;;;;;5040368;28;20188;-86
2022/07/12 11:18:03;;;;;;;2.05;0.60;;;;;;;;;;5028346;28;20208;-86
2022/07/12 11:21:07;;;;;;;0.65;0.50;;;;;;;;;;5021405;28;20184;-86
2022/07/12 11:24:25;;;;;;;2.35;0.60;;;;;;;;;;5033266;28;20687;-86
2022/07/12 11:27:29;;;;;;;2.80;0.75;;;;;;;;;;5032747;28;20188;-86
2022/07/12 11:30:34;;;;;;;3.72;2.15;;;;;;;;;;5030085;28;20176;-86
2022/07/12 11:33:45;;;;;;;1.73;0.70;;;;;;;;;;5006650;28;20566;-87
2022/07/12 11:36:54;;;;;;;0.60;0.52;;;;;;;;;;5042560;28;20195;-86
2022/07/12 11:39:58;;;;;;;1.95;0.70;;;;;;;;;;5042381;28;20219;-86
2022/07/12 11:43:04;;;;;;;1.45;0.80;;;;;;;;;;5043968;28;20225;-86
2022/07/12 11:46:09;;;;;;;0.82;0.63;;;;;;;;;;5032589;28;20188;-86
2022/07/12 11:49:15;;;;;;;0.50;0.50;;;;;;;;;;5033200;28;20189;-86
2022/07/12 11:52:21;;;;;;;1.10;0.70;;;;;;;;;;5032432;28;20172;-86
2022/07/12 11:55:25;;;;;;;1.33;0.70;;;;;;;;;;5021694;28;20180;-86
2022/07/12 11:58:29;;;;;;;1.70;0.70;;;;;;;;;;5055472;28;20200;-86
2022/07/12 12:01:33;;;;;;;1.67;0.68;;;;;;;;;;5021028;28;20180;-86
2022/07/12 12:04:53;;;;;;;0.88;0.60;;;;;;;;;;5044359;28;20180;-86
2022/07/12 12:07:57;;;;;;;0.90;0.70;;;;;;;;;;5043487;28;20199;-86
2022/07/12 12:11:01;;;;;;;1.25;0.70;;;;;;;;;;5043434;28;20196;-86
2022/07/12 12:14:05;;;;;;;1.00;0.60;;;;;;;;;;5032141;28;20215;-86
2022/07/12 12:17:13;;;;;;;2.25;0.68;;;;;;;;;;5032722;28;20189;-86
2022/07/12 12:20:19;;;;;;;3.17;0.50;;;;;;;;;;5021094;28;20639;-86
2022/07/12 12:23:24;;;;;;;0.98;0.80;;;;;;;;;;5043543;28;20216;-86
2022/07/12 12:26:30;;;;;;;1.42;0.70;;;;;;;;;;5021104;28;20188;-86
2022/07/12 12:29:41;;;;;;;1.15;0.63;;;;;;;;;;5032095;28;20169;-86
2022/07/12 12:32:53;;;;;;;2.22;0.60;;;;;;;;;;5020434;28;20220;-86
2022/07/12 12:36:11;;;;;;;0.75;0.55;;;;;;;;;;5043291;28;20631;-86
2022/07/12 12:39:28;;;;;;;1.33;0.70;;;;;;;;;;5032244;28;20217;-86
2022/07/12 12:42:32;;;;;;;0.80;0.50;;;;;;;;;;5020040;28;20212;-86
2022/07/12 12:45:48;;;;;;;1.38;0.70;;;;;;;;;;5031747;28;20188;-86
2022/07/12 12:48:53;;;;;;;1.00;0.77;;;;;;;;;;5020483;28;20523;-86
2022/07/12 12:52:00;;;;;;;2.10;0.70;;;;;;;;;;5054567;28;20535;-86
2022/07/12 12:55:04;;;;;;;0.85;0.50;;;;;;;;;;5031636;28;20201;-86
2022/07/12 12:58:10;;;;;;;1.80;0.55;;;;;;;;;;5020175;28;20176;-86
2022/07/12 13:01:13;;;;;;;0.82;0.70;;;;;;;;;;5031137;28;20185;-86
2022/07/12 13:04:18;;;;;;;2.97;0.70;;;;;;;;;;5031263;28;20556;-86
2022/07/12 13:07:22;;;;;;;3.78;0.68;;;;;;;;;;5019914;28;20176;-86
2022/07/12 13:10:26;;;;;;;0.65;0.52;;;;;;;;;;5020060;28;20167;-86
2022/07/12 13:13:31;;;;;;;0.88;0.50;;;;;;;;;;5042190;28;20224;-86
2022/07/12 13:16:35;;;;;;;2.28;0.47;;;;;;;;;;5019646;28;20193;-86
2022/07/12 13:19:39;;;;;;;0.93;0.50;;;;;;;;;;5019767;28;20216;-86
2022/07/12 13:22:44;;;;;;;0.75;0.63;;;;;;;;;;5030669;28;20216;-86
2022/07/12 13:25:48;;;;;;;2.67;0.50;;;;;;;;;;5031095;28;20181;-86
2022/07/12 13:28:54;;;;;;;0.60;0.50;;;;;;;;;;5019693;28;20180;-87
2022/07/12 13:31:58;;;;;;;1.25;0.40;;;;;;;;;;5019350;28;20176;-87
2022/07/12 13:35:04;;;;;;;1.33;0.57;;;;;;;;;;5010613;28;20675;-86
2022/07/12 13:38:08;;;;;;;1.73;0.43;;;;;;;;;;5021999;28;20181;-86
2022/07/12 13:41:13;;;;;;;0.70;0.50;;;;;;;;;;5021953;28;20177;-86
2022/07/12 13:44:16;;;;;;;0.40;0.40;;;;;;;;;;5010452;28;20233;-87
2022/07/12 13:47:22;;;;;;;0.40;0.35;;;;;;;;;;5044008;22;20191;-83
2022/07/12 13:50:26;;;;;;;0.93;0.57;;;;;;;;;;5096573;28;20175;-83
2022/07/12 13:53:31;;;;;;;1.20;0.43;;;;;;;;;;5083140;28;20527;-83
2022/07/12 13:56:35;;;;;;;3.17;0.40;;;;;;;;;;5061615;28;20649;-83
2022/07/12 13:59:39;;;;;;;1.50;0.50;;;;;;;;;;5050745;28;20172;-83
2022/07/12 14:02:48;;;;;;;0.82;0.45;;;;;;;;;;5073748;28;20183;-83
2022/07/12 14:05:52;;;;;;;0.60;0.40;;;;;;;;;;5048960;28;20191;-83
2022/07/12 14:08:56;;;;;;;1.10;0.50;;;;;;;;;;5085152;28;20222;-83
2022/07/12 14:12:02;;;;;;;0.90;0.50;;;;;;;;;;5082413;28;20207;-83
2022/07/12 14:15:35;;;;;;;1.65;0.60;;;;;;;;;;5075992;28;20202;-83
2022/07/12 14:18:40;;;;;;;3.97;0.60;;;;;;;;;;5081853;28;20219;-83
2022/07/12 14:21:44;;;;;;;0.60;0.50;;;;;;;;;;5050543;28;20180;-83
2022/07/12 14:24:48;;;;;;;1.00;0.63;;;;;;;;;;5080277;28;20191;-83
2022/07/12 14:27:52;;;;;;;2.25;0.50;;;;;;;;;;5076481;28;20697;-83
2022/07/12 14:30:57;;;;;;;2.15;0.57;;;;;;;;;;5066202;28;20191;-83
2022/07/12 14:34:01;;;;;;;2.20;0.60;;;;;;;;;;5083640;28;20199;-84
2022/07/12 14:37:05;;;;;;;4.07;0.57;;;;;;;;;;5065210;28;20199;-83
2022/07/12 14:40:12;;;;;;;2.58;0.80;;;;;;;;;;5061363;28;20175;-84
2022/07/12 14:43:17;;;;;;;1.25;0.50;;;;;;;;;;5058544;28;20183;-84
2022/07/12 14:46:21;;;;;;;0.50;0.50;;;;;;;;;;5058037;28;20188;-82
2022/07/12 14:49:25;;;;;;;1.17;0.45;;;;;;;;;;5076099;28;20227;-83
2022/07/12 14:52:30;;;;;;;0.50;0.47;;;;;;;;;;5052015;28;20179;-83
2022/07/12 14:55:34;;;;;;;1.42;0.40;;;;;;;;;;5044404;28;20175;-83
2022/07/12 14:58:38;;;;;;;2.67;0.40;;;;;;;;;;5058165;28;20581;-83
2022/07/12 15:01:43;;;;;;;1.58;0.50;;;;;;;;;;5067999;28;20188;-84
2022/07/12 15:04:46;;;;;;;2.13;0.55;;;;;;;;;;5095720;28;20207;-83
2022/07/12 15:07:51;;;;;;;0.80;0.50;;;;;;;;;;5056749;28;20219;-84
2022/07/12 15:10:56;;;;;;;0.70;0.50;;;;;;;;;;5067494;28;20204;-84
2022/07/12 15:14:00;;;;;;;0.52;0.45;;;;;;;;;;5046769;28;20172;-84
2022/07/12 15:17:04;;;;;;;0.60;0.40;;;;;;;;;;5057059;28;20176;-83
2022/07/12 15:20:08;;;;;;;1.67;0.50;;;;;;;;;;5080550;28;20175;-84
2022/07/12 15:23:12;;;;;;;0.50;0.50;;;;;;;;;;5065405;28;20546;-86
2022/07/12 15:26:17;;;;;;;3.00;0.73;;;;;;;;;;5065470;28;20179;-86
2022/07/12 15:29:21;;;;;;;0.40;0.40;;;;;;;;;;5077157;28;20218;-85
2022/07/12 15:32:26;;;;;;;1.67;0.60;;;;;;;;;;5077291;28;20191;-85
2022/07/12 15:35:30;;;;;;;0.65;0.40;;;;;;;;;;5100461;28;20188;-87
2022/07/12 15:38:34;;;;;;;1.27;0.40;;;;;;;;;;5076395;28;20685;-85
2022/07/12 15:41:39;;;;;;;2.13;0.60;;;;;;;;;;5070227;28;20186;-86
2022/07/12 15:44:44;;;;;;;0.50;0.40;;;;;;;;;;5052759;28;20199;-85
2022/07/12 15:47:48;;;;;;;1.50;0.40;;;;;;;;;;5065877;28;20235;-85
2022/07/12 15:50:52;;;;;;;1.58;0.40;;;;;;;;;;5047864;28;20208;-85
2022/07/12 15:53:56;;;;;;;2.13;0.43;;;;;;;;;;5075628;28;20187;-85
2022/07/12 15:57:01;;;;;;;1.27;0.30;;;;;;;;;;5087639;28;20179;-85
2022/07/12 16:00:06;;;;;;;2.05;0.60;;;;;;;;;;5081313;28;20195;-86
2022/07/12 16:03:11;;;;;;;0.70;0.50;;;;;;;;;;5099667;28;20181;-84
2022/07/12 16:06:15;;;;;;;0.98;0.40;;;;;;;;;;5065238;28;20189;-84
2022/07/12 16:09:20;;;;;;;5.68;0.60;;;;;;;;;;5089638;28;20686;-84
2022/07/12 16:12:24;;;;;;;1.08;0.40;;;;;;;;;;5056579;28;20191;-84
2022/07/12 16:15:29;;;;;;;1.17;0.60;;;;;;;;;;5060903;28;20189;-85
2022/07/12 16:18:34;;;;;;;0.68;0.40;;;;;;;;;;5089962;28;20693;-86
2022/07/12 16:21:38;;;;;;;2.17;0.70;;;;;;;;;;5070742;28;20180;-84
2022/07/12 16:24:42;;;;;;;0.50;0.40;;;;;;;;;;5088193;28;20186;-85
2022/07/12 16:27:47;;;;;;;0.90;0.60;;;;;;;;;;5088506;28;20217;-85
2022/07/12 16:30:51;;;;;;;0.52;0.50;;;;;;;;;;5088406;28;20202;-86
2022/07/12 16:33:55;;;;;;;0.90;0.70;;;;;;;;;;5094874;28;20188;-86
2022/07/12 16:36:59;;;;;;;0.60;0.50;;;;;;;;;;5075549;28;20187;-86
2022/07/12 16:40:04;;;;;;;1.30;0.60;;;;;;;;;;5076761;28;20182;-85
2022/07/12 16:43:08;;;;;;;0.50;0.50;;;;;;;;;;5065447;28;20632;-86
2022/07/12 16:46:12;;;;;;;0.68;0.60;;;;;;;;;;5056785;28;20518;-85
2022/07/12 16:49:16;;;;;;;1.48;0.52;;;;;;;;;;5081414;28;20685;-85
2022/07/12 16:52:20;;;;;;;1.00;0.60;;;;;;;;;;5064969;28;20183;-85
2022/07/12 16:55:24;;;;;;;0.40;0.40;;;;;;;;;;5084224;28;20193;-85
2022/07/12 16:58:29;;;;;;;0.75;0.50;;;;;;;;;;5087424;28;20236;-86
2022/07/12 17:01:51;;;;;;;0.65;0.40;;;;;;;;;;5074502;28;20192;-87
2022/07/12 17:10:07;;;;;;;0.68;0.50;;;;;;;;;;5017331;28;20228;-88
2022/07/12 17:13:11;;;;;;;0.50;0.47;;;;;;;;;;5052228;28;20203;-86
2022/07/12 17:16:16;;;;;;;1.90;0.50;;;;;;;;;;5084119;28;20188;-86
2022/07/12 17:19:20;;;;;;;0.50;0.50;;;;;;;;;;5074809;28;20212;-87
2022/07/12 17:22:24;;;;;;;1.13;0.60;;;;;;;;;;5086652;28;20204;-86
2022/07/12 17:25:28;;;;;;;1.50;0.80;;;;;;;;;;5075051;28;20538;-86
2022/07/12 17:28:32;;;;;;;0.93;0.60;;;;;;;;;;5070141;28;20586;-86
2022/07/12 17:31:37;;;;;;;0.57;0.57;;;;;;;;;;5068551;28;20202;-86
2022/07/12 17:34:41;;;;;;;3.97;0.80;;;;;;;;;;5051988;28;20533;-86
2022/07/12 17:37:48;;;;;;;0.90;0.67;;;;;;;;;;5070543;28;20211;-86
2022/07/12 17:40:54;;;;;;;1.13;0.60;;;;;;;;;;5063004;28;20184;-86
2022/07/12 17:43:58;;;;;;;2.20;0.70;;;;;;;;;;5064004;28;20188;-86
2022/07/12 17:47:03;;;;;;;1.00;0.67;;;;;;;;;;5081893;28;20197;-86
2022/07/12 17:50:11;;;;;;;1.23;0.60;;;;;;;;;;5064686;28;20665;-87
2022/07/12 17:53:15;;;;;;;2.67;0.67;;;;;;;;;;5070104;28;20195;-85
2022/07/12 17:56:19;;;;;;;5.03;0.53;;;;;;;;;;5082440;28;20648;-86
2022/07/12 17:59:23;;;;;;;1.87;0.60;;;;;;;;;;5085326;28;20221;-86
2022/07/12 18:02:28;;;;;;;5.13;0.70;;;;;;;;;;5062971;28;20185;-86
2022/07/12 18:05:32;;;;;;;1.07;0.53;;;;;;;;;;5072089;28;20181;-85
2022/07/12 18:08:36;;;;;;;1.10;0.63;;;;;;;;;;5086494;28;20222;-86
2022/07/12 18:15:03;;;;;;;2.13;0.70;;;;;;;;;;5072070;28;20653;-85
2022/07/12 18:18:07;;;;;;;2.30;0.60;;;;;;;;;;5071662;28;20209;-86
2022/07/12 18:21:12;;;;;;;6.23;1.03;;;;;;;;;;5073400;28;20655;-86
2022/07/12 18:24:16;;;;;;;3.90;0.70;;;;;;;;;;5051601;28;20194;-85
2022/07/12 18:27:20;;;;;;;3.20;0.70;;;;;;;;;;5055964;28;20228;-86
2022/07/12 18:30:30;;;;;;;3.43;0.60;;;;;;;;;;5082567;28;20199;-85
2022/07/12 18:33:37;;;;;;;0.80;0.60;;;;;;;;;;5070743;28;20192;-86
2022/07/12 18:36:41;;;;;;;0.90;0.50;;;;;;;;;;5053893;28;20187;-86
2022/07/12 18:39:45;;;;;;;0.50;0.50;;;;;;;;;;5070030;28;20187;-86
2022/07/12 18:42:52;;;;;;;1.10;0.53;;;;;;;;;;5060157;28;20187;-86
2022/07/12 18:45:57;;;;;;;1.63;0.60;;;;;;;;;;5038316;28;20199;-86
2022/07/12 18:49:01;;;;;;;1.00;0.50;;;;;;;;;;5066951;28;20230;-86
2022/07/12 18:52:05;;;;;;;3.53;0.70;;;;;;;;;;5061762;28;20559;-85